Time;durP1;ratioP1;P1;durP2;ratioP2;P2;SDS_P1;SDS_P2;PMS_P1;PMS_P2;Temp;Humidity;BMP_temperature;BMP_pressure;BME280_temperature;BME280_humidity;BME280_pressure;Samples;Min_cycle;Max_cycle;Signal;HPM_P1;HPM_P2
2022/12/04 00:02:17;;;;;;;;;3.25;3.25;;;;;3.84;75.93;99509.13;5049122;28;45282;-78
2022/12/04 00:04:43;;;;;;;;;4.50;3.25;;;;;4.15;74.70;99558.63;5044326;28;46186;-67
2022/12/04 00:07:09;;;;;;;;;3.25;3.25;;;;;4.13;74.66;99557.69;5049562;28;45533;-71
2022/12/04 00:09:34;;;;;;;;;7.25;5.00;;;;;4.13;74.80;99557.69;5048611;28;45459;-75
2022/12/04 00:12:00;;;;;;;;;4.75;3.25;;;;;4.09;74.86;99555.81;5043528;28;45488;-75
2022/12/04 00:14:26;;;;;;;;;5.00;5.00;;;;;4.10;74.93;99557.59;5049343;28;46136;-72
2022/12/04 00:16:51;;;;;;;;;2.50;2.50;;;;;4.08;75.04;99551.47;5048004;28;45681;-70
2022/12/04 00:19:17;;;;;;;;;3.25;2.25;;;;;4.06;75.32;99554.81;5049721;28;45441;-78
2022/12/04 00:21:44;;;;;;;;;5.75;4.00;;;;;4.04;75.22;99549.59;5045853;28;45480;-68
2022/12/04 00:24:09;;;;;;;;;3.50;3.25;;;;;3.99;74.75;99539.06;5058022;28;45897;-77
2022/12/04 00:26:35;;;;;;;;;3.00;2.50;;;;;4.05;74.64;99546.19;5056801;28;45487;-77
2022/12/04 00:29:01;;;;;;;;;5.00;3.25;;;;;4.01;74.99;99552.03;5056322;28;45386;-76
2022/12/04 00:31:29;;;;;;;;;3.25;3.25;;;;;3.96;74.70;99551.88;5054123;28;45764;-70
2022/12/04 00:33:55;;;;;;;;;5.50;4.50;;;;;3.91;75.79;99543.03;5052521;28;46066;-77
2022/12/04 00:36:23;;;;;;;;;2.75;2.00;;;;;3.86;75.87;99542.00;5054406;28;45422;-77
2022/12/04 00:38:49;;;;;;;;;5.50;4.00;;;;;3.84;76.33;99547.88;5056106;28;45419;-75
2022/12/04 00:41:18;;;;;;;;;6.00;4.00;;;;;3.82;76.51;99547.84;5055947;28;45551;-71
2022/12/04 00:43:44;;;;;;;;;5.75;3.25;;;;;3.77;76.46;99549.34;5056462;28;46006;-70
2022/12/04 00:46:11;;;;;;;;;4.00;2.00;;;;;3.75;76.64;99545.81;5056923;28;45173;-67
2022/12/04 00:48:37;;;;;;;;;5.25;5.00;;;;;3.72;76.03;99546.59;5056618;28;45432;-77
2022/12/04 00:51:10;;;;;;;;;4.00;4.00;;;;;3.54;76.01;99512.25;5064196;28;45368;-71
2022/12/04 00:53:36;;;;;;;;;4.25;4.25;;;;;3.74;75.75;99550.13;5056645;28;45499;-72
2022/12/04 00:56:07;;;;;;;;;6.00;4.25;;;;;3.72;75.85;99549.19;5057009;28;45504;-72
2022/12/04 00:58:33;;;;;;;;;3.75;3.25;;;;;3.55;75.66;99524.34;5057388;28;45291;-72
2022/12/04 01:01:09;;;;;;;;;5.00;5.00;;;;;3.71;76.08;99538.78;5057618;28;45191;-68
2022/12/04 01:03:35;;;;;;;;;2.75;2.00;;;;;3.70;76.09;99555.06;5057124;28;45529;-70
2022/12/04 01:06:01;;;;;;;;;5.00;4.50;;;;;3.55;76.11;99526.94;5057086;28;45522;-68
2022/12/04 01:08:27;;;;;;;;;5.50;4.00;;;;;3.71;75.26;99555.16;5057187;28;45474;-76
2022/12/04 01:10:52;;;;;;;;;2.50;2.00;;;;;3.69;75.45;99554.19;5055912;28;45469;-70
2022/12/04 01:13:18;;;;;;;;;3.25;3.25;;;;;3.68;75.13;99547.28;5056760;28;46007;-72
2022/12/04 01:15:46;;;;;;;;;4.25;3.50;;;;;3.65;75.41;99551.44;5056929;28;45457;-71
2022/12/04 01:18:13;;;;;;;;;6.00;5.25;;;;;3.61;75.86;99545.25;5057453;28;45311;-70
2022/12/04 01:20:39;;;;;;;;;8.75;4.00;;;;;3.57;76.16;99535.63;5057351;28;45320;-71
2022/12/04 01:23:05;;;;;;;;;4.25;3.75;;;;;3.53;76.13;99541.47;5056733;28;45263;-68
2022/12/04 01:25:31;;;;;;;;;3.25;3.25;;;;;3.51;76.32;99536.25;5056824;28;45368;-72
2022/12/04 01:27:57;;;;;;;;;2.00;2.00;;;;;3.50;75.89;99534.50;5056855;28;45413;-72
2022/12/04 01:30:23;;;;;;;;;4.50;4.25;;;;;3.34;76.14;99506.25;5057238;28;45258;-69
2022/12/04 01:32:48;;;;;;;;;6.00;4.00;;;;;3.49;75.82;99529.25;5056709;28;46245;-73
2022/12/04 01:35:14;;;;;;;;;2.00;2.00;;;;;3.49;75.69;99526.69;5056944;28;45377;-70
2022/12/04 01:37:39;;;;;;;;;2.75;2.00;;;;;3.36;75.65;99515.84;5056839;28;45320;-67
2022/12/04 01:40:06;;;;;;;;;2.00;2.00;;;;;3.44;75.47;99528.16;5056993;28;45312;-69
2022/12/04 01:42:31;;;;;;;;;3.75;2.00;;;;;3.48;75.81;99540.38;5056405;28;46206;-67
2022/12/04 01:45:28;;;;;;;;;2.25;2.25;;;;;3.52;75.58;99531.94;5056599;28;45451;-68
2022/12/04 01:47:56;;;;;;;;;4.00;2.00;;;;;3.43;75.02;99518.69;5060891;28;45374;-71
2022/12/04 01:50:22;;;;;;;;;6.00;5.00;;;;;3.48;75.22;99528.38;5061001;28;45478;-67
2022/12/04 01:52:48;;;;;;;;;2.00;1.75;;;;;3.55;74.89;99532.09;5060425;28;45381;-68
2022/12/04 01:55:14;;;;;;;;;4.00;4.00;;;;;3.51;75.29;99544.00;5060794;28;45341;-70
2022/12/04 01:57:41;;;;;;;;;5.00;2.00;;;;;3.48;75.48;99541.28;5060461;28;45445;-73
2022/12/04 02:00:14;;;;;;;;;2.50;2.50;;;;;3.27;75.29;99505.13;5060477;28;45460;-67
2022/12/04 02:02:43;;;;;;;;;2.50;1.75;;;;;3.40;76.07;99534.91;5060056;28;45461;-71
2022/12/04 02:05:11;;;;;;;;;4.00;4.00;;;;;3.37;75.90;99532.22;5060326;28;45334;-69
2022/12/04 02:07:38;;;;;;;;;2.00;2.00;;;;;3.34;76.08;99534.66;5060262;28;45480;-68
2022/12/04 02:10:07;;;;;;;;;4.00;3.50;;;;;3.35;76.53;99529.56;5060553;28;45278;-72
2022/12/04 02:12:43;;;;;;;;;5.00;4.00;;;;;3.35;76.27;99539.88;5060172;28;45519;-69
2022/12/04 02:15:47;;;;;;;;;6.00;4.00;;;;;3.37;76.44;99532.22;5058732;28;45460;-71
2022/12/04 02:18:29;;;;;;;;;2.25;2.25;;;;;3.37;76.00;99533.09;5048503;28;45527;-67
2022/12/04 02:21:04;;;;;;;;;4.25;2.00;;;;;3.41;76.52;99530.66;5058854;28;45515;-69
2022/12/04 02:23:54;;;;;;;;;4.00;4.00;;;;;3.48;76.22;99527.47;5059476;28;45477;-68
2022/12/04 02:26:36;;;;;;;;;3.50;3.50;;;;;3.57;75.61;99530.47;5059261;28;45269;-67
2022/12/04 02:29:34;;;;;;;;;3.50;2.00;;;;;3.66;75.42;99530.84;5059346;28;45480;-67
2022/12/04 02:32:18;;;;;;;;;4.25;2.00;;;;;3.79;75.18;99529.63;5059333;28;45549;-69
2022/12/04 02:34:57;;;;;;;;;5.50;2.75;;;;;3.90;75.09;99524.88;5059604;28;46211;-67
2022/12/04 02:37:28;;;;;;;;;2.00;2.00;;;;;4.00;74.33;99521.88;5059450;28;45409;-66
2022/12/04 02:40:03;;;;;;;;;5.75;3.75;;;;;4.06;74.03;99527.28;5059395;28;45449;-67
2022/12/04 02:42:33;;;;;;;;;2.00;2.00;;;;;4.04;73.33;99518.59;5059511;28;45513;-67
2022/12/04 02:45:07;;;;;;;;;2.00;1.75;;;;;4.12;73.24;99540.44;5059141;28;46204;-66
2022/12/04 02:47:35;;;;;;;;;2.25;2.00;;;;;4.16;73.49;99541.44;5059113;28;45357;-67
2022/12/04 02:50:07;;;;;;;;;3.50;2.75;;;;;4.20;73.14;99543.34;5059418;28;45309;-79
2022/12/04 02:52:38;;;;;;;;;4.00;3.25;;;;;4.28;72.88;99539.34;5059099;28;45464;-67
2022/12/04 02:55:10;;;;;;;;;3.50;3.50;;;;;4.42;71.73;99536.38;5058943;28;45497;-78
2022/12/04 02:57:42;;;;;;;;;2.00;2.00;;;;;4.56;70.65;99546.44;5057958;28;45428;-79
2022/12/04 03:00:09;;;;;;;;;3.25;3.25;;;;;4.67;69.82;99544.25;5059155;28;45284;-67
2022/12/04 03:02:42;;;;;;;;;2.00;1.75;;;;;4.74;70.03;99550.56;5059226;28;45469;-67
2022/12/04 03:05:15;;;;;;;;;3.00;2.00;;;;;4.78;70.33;99534.31;5058844;28;46175;-67
2022/12/04 03:07:53;;;;;;;;;1.50;1.50;;;;;4.87;69.67;99537.22;5058764;28;45490;-67
2022/12/04 03:10:26;;;;;;;;;2.00;1.00;;;;;4.91;69.19;99531.31;5059122;28;45495;-66
2022/12/04 03:12:58;;;;;;;;;2.50;2.00;;;;;4.98;69.33;99545.41;5058918;28;45352;-66
2022/12/04 03:15:46;;;;;;;;;2.00;1.75;;;;;5.02;68.90;99551.56;5057252;28;45385;-76
2022/12/04 03:18:20;;;;;;;;;3.00;3.00;;;;;5.10;68.61;99539.78;5058746;28;45349;-66
2022/12/04 03:20:49;;;;;;;;;4.50;2.50;;;;;5.16;68.71;99550.34;5058877;28;45455;-66
2022/12/04 03:23:53;;;;;;;;;4.50;2.75;;;;;5.16;68.76;99540.88;5058707;28;45432;-77
2022/12/04 03:26:18;;;;;;;;;2.75;2.00;;;;;5.21;68.80;99543.59;5054855;28;45382;-66
2022/12/04 03:29:07;;;;;;;;;3.00;2.00;;;;;5.23;68.77;99546.25;5058457;28;45323;-66
2022/12/04 03:31:47;;;;;;;;;2.75;2.75;;;;;5.12;68.48;99514.81;5058788;28;45400;-66
2022/12/04 03:34:35;;;;;;;;;3.50;2.25;;;;;5.30;69.25;99543.94;5058460;28;45515;-72
2022/12/04 03:37:12;;;;;;;;;2.00;2.00;;;;;5.35;68.90;99546.69;5058357;28;46144;-67
2022/12/04 03:39:43;;;;;;;;;3.00;2.00;;;;;5.39;68.54;99540.78;5058333;28;45417;-66
2022/12/04 03:42:25;;;;;;;;;2.25;2.00;;;;;5.38;68.56;99536.44;5058529;28;45385;-74
2022/12/04 03:45:22;;;;;;;;;5.00;3.00;;;;;5.48;68.50;99543.69;5059048;28;45230;-66
2022/12/04 03:48:27;;;;;;;;;2.75;2.75;;;;;5.52;68.31;99542.09;5057761;28;45448;-66
2022/12/04 03:51:06;;;;;;;;;3.50;2.25;;;;;5.55;67.96;99537.00;5058426;28;45588;-77
2022/12/04 03:53:51;;;;;;;;;2.00;2.00;;;;;5.58;67.94;99540.56;5057992;28;45403;-67
2022/12/04 03:56:21;;;;;;;;;3.00;3.00;;;;;5.63;67.49;99539.84;5058443;28;45389;-77
2022/12/04 03:58:56;;;;;;;;;4.50;2.50;;;;;5.64;67.43;99539.91;5057977;28;46218;-66
2022/12/04 04:01:26;;;;;;;;;4.00;3.00;;;;;5.68;66.90;99538.31;5058336;28;45586;-66
2022/12/04 04:03:56;;;;;;;;;5.00;3.00;;;;;5.52;66.86;99511.00;5058516;28;45470;-67
2022/12/04 04:06:31;;;;;;;;;3.00;2.00;;;;;5.69;66.96;99537.47;5058568;28;46086;-78
2022/12/04 04:09:01;;;;;;;;;3.00;2.50;;;;;5.70;66.65;99542.69;5057643;28;45249;-66
2022/12/04 04:11:42;;;;;;;;;2.00;2.00;;;;;5.73;66.87;99554.88;5057862;28;45258;-67
2022/12/04 04:25:26;;;;;;;;;3.00;3.00;;;;;5.84;66.84;99543.16;5058070;28;46125;-67
2022/12/04 04:27:57;;;;;;;;;2.00;1.75;;;;;5.83;66.01;99543.09;5058170;28;45624;-67
2022/12/04 04:30:23;;;;;;;;;3.00;3.00;;;;;5.86;66.49;99551.88;5057768;28;45258;-66
2022/12/04 04:32:56;;;;;;;;;3.00;3.00;;;;;5.89;66.17;99541.59;5056259;28;45413;-66
2022/12/04 04:35:45;;;;;;;;;3.00;2.00;;;;;5.90;66.37;99550.25;5057806;28;45219;-66
2022/12/04 04:38:19;;;;;;;;;4.50;3.00;;;;;5.92;67.01;99546.00;5054507;28;45390;-78
2022/12/04 04:40:55;;;;;;;;;6.75;5.75;;;;;5.93;66.82;99552.97;5057418;28;45476;-66
2022/12/04 04:43:39;;;;;;;;;5.00;3.00;;;;;5.90;66.46;99542.47;5057272;28;45429;-66
2022/12/04 04:46:12;;;;;;;;;3.00;3.00;;;;;5.81;65.96;99522.34;5057494;28;45451;-66
2022/12/04 04:48:42;;;;;;;;;2.00;2.00;;;;;5.89;65.67;99533.84;5057571;28;45776;-66
2022/12/04 04:51:09;;;;;;;;;5.50;5.00;;;;;6.03;66.12;99552.47;5057122;28;45449;-66
2022/12/04 04:53:45;;;;;;;;;4.50;3.00;;;;;5.97;65.82;99542.78;5056841;28;45381;-66
2022/12/04 04:56:11;;;;;;;;;25.75;20.25;;;;;6.06;65.35;99543.88;5055904;28;45279;-66
2022/12/04 04:58:37;;;;;;;;;37.25;24.75;;;;;6.06;65.64;99543.88;5057303;28;45560;-66
2022/12/04 05:01:04;;;;;;;;;27.75;24.25;;;;;6.09;65.37;99555.25;5057150;28;45883;-66
2022/12/04 05:03:31;;;;;;;;;32.75;29.00;;;;;6.10;65.24;99550.94;5055754;28;45261;-66
2022/12/04 05:05:56;;;;;;;;;39.75;36.50;;;;;6.13;65.28;99549.31;5072978;28;45367;-66
2022/12/04 05:08:22;;;;;;;;;29.25;25.50;;;;;5.89;65.22;99507.00;5057319;28;45444;-66
2022/12/04 05:10:48;;;;;;;;;15.75;15.25;;;;;6.13;65.45;99551.03;5056778;28;46654;-78
2022/12/04 05:13:15;;;;;;;;;16.00;12.00;;;;;6.13;64.95;99551.91;5055476;28;45255;-66
2022/12/04 05:15:41;;;;;;;;;12.00;11.25;;;;;6.11;65.35;99543.22;5056997;28;45348;-67
2022/12/04 05:18:07;;;;;;;;;11.00;10.00;;;;;6.13;65.46;99554.50;5057027;28;45546;-67
2022/12/04 05:20:33;;;;;;;;;10.25;8.75;;;;;6.13;65.92;99554.50;5058764;28;46230;-78
2022/12/04 05:22:58;;;;;;;;;6.00;6.00;;;;;6.07;65.63;99538.75;5060474;28;45231;-77
2022/12/04 05:25:24;;;;;;;;;6.00;5.00;;;;;6.15;65.31;99554.56;5060504;28;45967;-76
2022/12/04 05:27:49;;;;;;;;;4.50;4.50;;;;;6.14;65.20;99557.97;5060793;28;45471;-66
2022/12/04 05:30:15;;;;;;;;;8.50;6.00;;;;;6.15;65.22;99563.22;5060189;28;46106;-66
2022/12/04 05:32:41;;;;;;;;;6.00;5.75;;;;;6.14;64.75;99560.56;5060373;28;46101;-77
2022/12/04 05:35:07;;;;;;;;;7.00;6.00;;;;;5.83;65.22;99509.41;5060369;28;45509;-77
2022/12/04 05:37:36;;;;;;;;;4.50;3.00;;;;;6.16;65.22;99570.16;5060483;28;45608;-66
2022/12/04 05:40:03;;;;;;;;;5.00;3.00;;;;;6.18;64.52;99575.38;5060173;28;45512;-66
2022/12/04 05:42:28;;;;;;;;;1.00;0.75;;;;;6.19;64.34;99571.97;5060020;28;45358;-78
2022/12/04 05:44:54;;;;;;;;;7.50;5.75;;;;;6.20;64.54;99578.03;5060072;28;45209;-67
2022/12/04 05:47:19;;;;;;;;;17.00;11.75;;;;;6.16;64.27;99575.34;5060126;28;45474;-78
2022/12/04 05:49:45;;;;;;;;;11.00;10.00;;;;;6.12;64.31;99570.00;5059787;28;45425;-67
2022/12/04 05:52:10;;;;;;;;;8.00;8.00;;;;;5.85;64.73;99538.84;5060101;28;45464;-67
2022/12/04 05:54:36;;;;;;;;;6.50;6.00;;;;;6.15;65.14;99578.78;5060140;28;45717;-78
2022/12/04 05:57:01;;;;;;;;;5.25;4.50;;;;;6.18;64.42;99576.25;5058803;28;45323;-67
2022/12/04 05:59:27;;;;;;;;;5.75;3.00;;;;;6.21;64.74;99574.59;5060247;28;45515;-78
2022/12/04 06:01:52;;;;;;;;;3.00;3.00;;;;;6.21;64.73;99579.78;5060167;28;45371;-74
2022/12/04 06:04:18;;;;;;;;;4.50;3.00;;;;;6.21;64.73;99579.78;5060224;28;45336;-67
2022/12/04 06:06:43;;;;;;;;;3.00;3.00;;;;;6.12;64.97;99564.81;5059020;28;45312;-67
2022/12/04 06:09:10;;;;;;;;;2.50;2.50;;;;;6.21;65.64;99578.09;5059973;28;45668;-74
2022/12/04 06:11:38;;;;;;;;;4.50;3.00;;;;;6.22;65.23;99578.97;5059852;28;45267;-70
2022/12/04 06:14:06;;;;;;;;;3.50;3.00;;;;;6.24;65.90;99577.31;5059673;28;45418;-67
2022/12/04 06:16:38;;;;;;;;;3.00;3.00;;;;;6.25;65.89;99579.09;5060251;28;45470;-67
2022/12/04 06:19:08;;;;;;;;;5.00;4.00;;;;;6.25;66.10;99581.66;5059671;28;45405;-77
2022/12/04 06:21:36;;;;;;;;;3.00;3.00;;;;;6.22;65.98;99579.84;5059571;28;45373;-67
2022/12/04 06:24:02;;;;;;;;;6.75;6.75;;;;;6.20;66.42;99584.09;5059804;28;45551;-75
2022/12/04 06:26:28;;;;;;;;;12.00;11.00;;;;;6.07;66.18;99558.59;5060228;28;45418;-67
2022/12/04 06:28:57;;;;;;;;;6.25;5.75;;;;;5.90;65.91;99543.34;5059304;28;45448;-73
2022/12/04 06:31:24;;;;;;;;;5.25;4.50;;;;;6.04;66.37;99582.72;5058162;28;45376;-67
2022/12/04 06:33:52;;;;;;;;;3.50;3.50;;;;;5.75;66.86;99548.06;5059587;28;45348;-79
2022/12/04 06:36:22;;;;;;;;;3.00;3.00;;;;;5.87;66.66;99584.75;5059645;28;45477;-79
2022/12/04 06:38:48;;;;;;;;;6.00;5.00;;;;;5.85;66.96;99588.09;5059142;28;45988;-74
2022/12/04 06:41:17;;;;;;;;;6.00;5.00;;;;;5.80;67.20;99589.66;5059323;28;45566;-75
2022/12/04 06:43:44;;;;;;;;;5.75;3.00;;;;;5.73;67.10;99594.66;5059502;28;45473;-79
2022/12/04 06:46:15;;;;;;;;;3.00;3.00;;;;;5.66;67.76;99595.25;5059655;28;45526;-79
2022/12/04 06:48:42;;;;;;;;;2.50;2.00;;;;;5.57;68.29;99592.34;5059196;28;45465;-79
2022/12/04 06:51:17;;;;;;;;;4.00;4.00;;;;;5.46;68.47;99597.16;5059045;28;45421;-78
2022/12/04 06:53:43;;;;;;;;;3.00;3.00;;;;;5.44;68.29;99603.13;5058951;28;45443;-78
2022/12/04 06:56:11;;;;;;;;;3.50;3.00;;;;;5.08;68.22;99550.06;5059237;28;45548;-75
2022/12/04 06:58:37;;;;;;;;;5.00;3.00;;;;;5.20;68.84;99585.88;5058799;28;45479;-79
2022/12/04 07:01:12;;;;;;;;;5.00;4.00;;;;;5.15;68.89;99590.00;5059248;28;45496;-70
2022/12/04 07:03:38;;;;;;;;;4.50;4.00;;;;;5.10;69.23;99594.13;5059315;28;45342;-79
2022/12/04 07:06:17;;;;;;;;;3.00;3.00;;;;;5.21;69.28;99613.50;5059475;28;45276;-78
2022/12/04 07:08:45;;;;;;;;;2.00;2.00;;;;;5.18;69.17;99619.47;5058746;28;46213;-78
2022/12/04 07:11:11;;;;;;;;;3.00;3.00;;;;;5.16;69.45;99622.84;5058878;28;45156;-73
2022/12/04 07:13:37;;;;;;;;;5.00;3.00;;;;;5.13;69.73;99620.13;5058810;28;45412;-69
2022/12/04 07:16:05;;;;;;;;;5.00;4.50;;;;;5.12;69.41;99632.19;5059070;28;45235;-67
2022/12/04 07:18:31;;;;;;;;;7.50;5.75;;;;;5.07;69.88;99636.31;5058921;28;45973;-67
2022/12/04 07:20:57;;;;;;;;;5.00;4.50;;;;;4.98;70.24;99621.31;5058728;28;45451;-78
2022/12/04 07:23:23;;;;;;;;;5.25;3.00;;;;;4.96;70.38;99624.69;5058638;28;45342;-77
2022/12/04 07:25:49;;;;;;;;;5.50;3.00;;;;;5.00;70.22;99644.69;5059068;28;45333;-67
2022/12/04 07:28:14;;;;;;;;;3.00;2.25;;;;;4.98;70.51;99636.84;5058458;28;46006;-66
2022/12/04 07:30:40;;;;;;;;;2.25;2.00;;;;;4.98;70.12;99636.84;5058511;28;45388;-67
2022/12/04 07:33:05;;;;;;;;;3.50;2.75;;;;;5.04;70.02;99643.09;5058844;28;45497;-67
2022/12/04 07:35:31;;;;;;;;;6.00;6.00;;;;;5.12;70.19;99646.84;5058391;28;45282;-67
2022/12/04 07:37:56;;;;;;;;;7.25;6.50;;;;;5.22;69.48;99648.09;5057890;28;45984;-78
2022/12/04 07:40:22;;;;;;;;;8.50;5.75;;;;;5.29;69.11;99645.78;5057849;28;45495;-78
2022/12/04 07:42:47;;;;;;;;;2.75;1.75;;;;;5.36;68.49;99639.97;5057355;28;45408;-66
2022/12/04 07:45:13;;;;;;;;;2.75;2.00;;;;;5.41;68.37;99649.63;5057999;28;45303;-67
2022/12/04 07:47:38;;;;;;;;;5.75;5.00;;;;;5.42;67.65;99648.81;5057500;28;45381;-67
2022/12/04 07:50:05;;;;;;;;;9.00;7.25;;;;;5.48;67.39;99656.78;5057804;28;45243;-67
2022/12/04 07:52:36;;;;;;;;;10.75;6.75;;;;;5.56;67.19;99665.72;5057374;28;45421;-67
2022/12/04 07:55:03;;;;;;;;;11.50;10.75;;;;;5.64;66.71;99666.00;5056395;28;45258;-67
2022/12/04 07:57:29;;;;;;;;;11.00;10.25;;;;;5.75;66.99;99677.63;5057056;28;46164;-78
2022/12/04 07:59:55;;;;;;;;;11.25;9.00;;;;;5.83;66.62;99675.28;5057120;28;45325;-79
2022/12/04 08:02:20;;;;;;;;;12.50;10.00;;;;;5.92;66.46;99673.03;5057392;28;45484;-79
2022/12/04 08:04:46;;;;;;;;;19.50;15.75;;;;;6.02;66.62;99671.66;5057472;28;45372;-66
2022/12/04 08:07:12;;;;;;;;;16.50;12.50;;;;;6.12;66.44;99664.22;5056982;28;45440;-66
2022/12/04 08:09:38;;;;;;;;;11.00;11.00;;;;;6.23;66.14;99674.97;5057548;28;45615;-77
2022/12/04 08:12:04;;;;;;;;;6.00;6.00;;;;;6.28;66.07;99662.16;5057009;28;45469;-66
2022/12/04 08:14:29;;;;;;;;;3.50;3.00;;;;;6.27;65.21;99656.09;5056996;28;45393;-75
2022/12/04 08:16:55;;;;;;;;;5.00;5.00;;;;;6.58;64.72;99688.22;5057104;28;45550;-78
2022/12/04 08:19:21;;;;;;;;;7.75;7.00;;;;;6.70;63.63;99679.94;5057000;28;45435;-66
2022/12/04 08:21:46;;;;;;;;;14.75;12.50;;;;;6.74;63.93;99671.41;5057162;28;45572;-66
2022/12/04 08:24:12;;;;;;;;;10.50;10.00;;;;;7.01;63.69;99686.09;5057171;28;45639;-67
2022/12/04 08:26:37;;;;;;;;;10.00;7.75;;;;;7.15;62.25;99685.66;5057166;28;45521;-68
2022/12/04 08:29:04;;;;;;;;;9.75;7.00;;;;;7.35;62.42;99685.38;5056716;28;45552;-67
2022/12/04 08:31:32;;;;;;;;;9.50;9.25;;;;;7.50;61.39;99693.63;5056827;28;45575;-75
2022/12/04 08:33:59;;;;;;;;;28.25;24.50;;;;;7.72;62.05;99689.03;5056820;28;45499;-78
2022/12/04 08:36:25;;;;;;;;;12.25;11.75;;;;;7.93;60.95;99680.91;5056487;28;46297;-82
2022/12/04 08:38:51;;;;;;;;;6.25;6.00;;;;;8.12;60.96;99685.75;5056683;28;45480;-80
2022/12/04 08:41:20;;;;;;;;;7.00;6.25;;;;;8.31;60.48;99683.63;5056723;28;45595;-82
2022/12/04 08:43:45;;;;;;;;;15.25;13.25;;;;;8.45;59.77;99687.47;5056619;28;45563;-67
2022/12/04 08:46:14;;;;;;;;;6.50;6.50;;;;;8.39;60.50;99661.25;5056263;28;45614;-66
2022/12/04 08:48:40;;;;;;;;;9.50;8.75;;;;;8.72;60.40;99686.38;5056898;28;45473;-67
2022/12/04 08:51:11;;;;;;;;;9.50;8.50;;;;;8.84;59.40;99694.47;5056958;28;45542;-67
2022/12/04 08:53:36;;;;;;;;;6.25;6.25;;;;;8.99;58.78;99693.94;5056618;28;45385;-66
2022/12/04 08:56:03;;;;;;;;;9.00;9.00;;;;;8.93;58.48;99683.38;5055671;28;45444;-82
2022/12/04 08:58:29;;;;;;;;;16.25;14.00;;;;;8.94;58.68;99679.94;5056469;28;45340;-75
2022/12/04 09:00:55;;;;;;;;;10.50;9.50;;;;;9.04;56.94;99707.09;5053638;28;45492;-67
2022/12/04 09:03:21;;;;;;;;;26.50;18.25;;;;;9.06;58.40;99705.41;5056290;28;45372;-68
2022/12/04 09:05:47;;;;;;;;;7.25;7.00;;;;;9.08;58.46;99707.19;5055503;28;45885;-75
2022/12/04 09:08:16;;;;;;;;;14.00;13.25;;;;;9.00;58.39;99711.34;5055173;28;45654;-67
2022/12/04 09:10:42;;;;;;;;;8.00;7.00;;;;;8.91;57.78;99709.41;5055766;28;45490;-67
2022/12/04 09:13:08;;;;;;;;;9.75;9.50;;;;;8.86;58.42;99707.53;5057171;28;45419;-78
2022/12/04 09:15:38;;;;;;;;;7.75;7.00;;;;;9.58;57.33;99708.25;5056549;28;45492;-67
2022/12/04 09:18:03;;;;;;;;;8.00;8.00;;;;;10.46;54.90;99706.44;5056271;28;45579;-68
2022/12/04 09:20:29;;;;;;;;;8.75;6.75;;;;;11.19;52.78;99702.34;5056341;28;45438;-69
2022/12/04 09:22:54;;;;;;;;;8.00;6.75;;;;;11.71;51.44;99706.47;5056641;28;45412;-75
2022/12/04 09:25:20;;;;;;;;;15.00;13.00;;;;;12.11;50.95;99706.94;5055073;28;45928;-79
2022/12/04 09:27:45;;;;;;;;;8.00;7.75;;;;;12.43;49.37;99709.00;5055284;28;45609;-73
2022/12/04 09:30:12;;;;;;;;;8.50;8.50;;;;;12.73;48.00;99702.25;5056330;28;45548;-67
2022/12/04 09:32:37;;;;;;;;;7.00;6.50;;;;;12.54;49.33;99665.44;5055163;28;45651;-67
2022/12/04 09:35:04;;;;;;;;;7.50;6.75;;;;;13.05;49.07;99705.13;5054160;28;45552;-68
2022/12/04 09:37:32;;;;;;;;;8.75;8.25;;;;;13.17;48.43;99704.31;5055625;28;45428;-67
2022/12/04 09:39:57;;;;;;;;;6.00;5.75;;;;;13.29;47.04;99701.81;5055670;28;45966;-76
2022/12/04 09:42:38;;;;;;;;;14.50;12.50;;;;;13.35;46.09;99705.31;5055713;28;45462;-77
2022/12/04 09:45:37;;;;;;;;;8.00;7.00;;;;;13.50;46.83;99711.50;5049655;28;45475;-68
2022/12/04 09:48:03;;;;;;;;;6.33;6.33;;;;;13.69;46.39;99708.97;5055203;28;45480;-73
2022/12/04 09:50:40;;;;;;;;;6.67;6.67;;;;;14.00;46.17;99716.94;5055711;28;46003;-68
2022/12/04 09:53:13;;;;;;;;;7.00;7.00;;;;;13.94;45.90;99667.91;5052441;28;45566;-69
2022/12/04 09:55:43;;;;;;;;;6.33;5.00;;;;;14.23;44.97;99712.63;5055205;28;46740;-67
2022/12/04 09:58:14;;;;;;;;;19.25;16.50;;;;;14.23;46.68;99694.25;5055472;28;45478;-68
2022/12/04 10:00:43;;;;;;;;;14.00;11.75;;;;;14.40;45.89;99704.75;5055764;28;45519;-67
2022/12/04 10:03:20;;;;;;;;;9.00;8.00;;;;;14.51;46.12;99720.53;5055836;28;45678;-74
2022/12/04 10:06:13;;;;;;;;;8.00;8.00;;;;;14.42;45.78;99721.41;5056240;28;46245;-67
2022/12/04 10:08:52;;;;;;;;;7.00;7.00;;;;;14.47;44.34;99722.28;5057762;28;45381;-68
2022/12/04 10:11:26;;;;;;;;;6.67;6.67;;;;;14.42;47.35;99702.13;5059035;28;45570;-76
2022/12/04 10:13:55;;;;;;;;;8.67;7.00;;;;;14.61;45.80;99724.09;5056397;28;45575;-68
2022/12/04 10:16:31;;;;;;;;;10.67;10.67;;;;;14.60;46.04;99720.56;5058760;28;45596;-68
2022/12/04 10:19:20;;;;;;;;;6.00;5.33;;;;;14.44;45.56;99717.03;5058925;28;45354;-68
2022/12/04 10:22:10;;;;;;;;;7.00;6.33;;;;;14.31;44.23;99725.78;5031687;28;45663;-68
2022/12/04 10:24:52;;;;;;;;;8.00;6.00;;;;;14.08;44.70;99728.34;5053286;28;45834;-71
2022/12/04 10:27:44;;;;;;;;;7.67;7.00;;;;;13.87;45.60;99727.41;5055506;28;45277;-67
2022/12/04 10:30:22;;;;;;;;;8.25;8.00;;;;;13.73;45.18;99730.00;5057847;28;45342;-66
2022/12/04 10:32:55;;;;;;;;;8.00;7.33;;;;;13.63;46.54;99720.34;5058167;28;45415;-72
2022/12/04 10:35:22;;;;;;;;;9.00;9.00;;;;;13.65;46.15;99710.72;5057899;28;45484;-68
2022/12/04 10:37:54;;;;;;;;;7.33;7.00;;;;;13.73;45.37;99708.13;5057676;28;46119;-76
2022/12/04 10:40:26;;;;;;;;;7.33;7.33;;;;;13.65;45.04;99708.09;5058251;28;45666;-68
2022/12/04 10:43:04;;;;;;;;;9.00;8.00;;;;;13.58;46.49;99711.53;5055938;28;45282;-73
2022/12/04 10:45:30;;;;;;;;;7.67;7.00;;;;;13.58;46.50;99713.31;5055186;28;45335;-67
2022/12/04 10:47:56;;;;;;;;;6.67;6.67;;;;;13.48;44.90;99707.13;5057746;28;46099;-67
2022/12/04 10:50:24;;;;;;;;;8.33;8.00;;;;;13.25;45.40;99672.88;5058003;28;45503;-67
2022/12/04 10:52:50;;;;;;;;;10.00;9.00;;;;;13.34;45.76;99717.56;5057836;28;45415;-67
2022/12/04 10:55:27;;;;;;;;;9.00;7.33;;;;;13.25;46.06;99714.84;5056385;28;45743;-68
2022/12/04 10:57:53;;;;;;;;;6.00;5.00;;;;;13.22;46.30;99715.72;5054952;28;46012;-68
2022/12/04 11:00:33;;;;;;;;;9.75;9.25;;;;;13.24;45.93;99713.09;5054756;28;45518;-68
2022/12/04 11:03:02;;;;;;;;;15.75;14.00;;;;;13.29;44.71;99719.22;5038570;28;45453;-68
2022/12/04 11:05:34;;;;;;;;;16.50;13.50;;;;;13.22;44.55;99707.84;5038911;28;45294;-68
2022/12/04 11:08:03;;;;;;;;;11.00;9.75;;;;;13.08;45.98;99710.38;5051566;28;45459;-67
2022/12/04 11:10:42;;;;;;;;;13.00;10.50;;;;;12.92;45.55;99700.66;5058494;28;45534;-68
2022/12/04 11:13:11;;;;;;;;;14.00;11.75;;;;;12.92;45.92;99704.16;5058728;28;45489;-68
2022/12/04 11:16:03;;;;;;;;;9.75;8.75;;;;;12.75;46.69;99695.28;5058331;28;45386;-75
2022/12/04 11:18:34;;;;;;;;;12.75;12.50;;;;;12.59;46.00;99701.28;5054050;28;45489;-72
2022/12/04 11:21:25;;;;;;;;;13.50;11.00;;;;;12.60;46.92;99698.69;5057542;28;45363;-69
2022/12/04 11:23:52;;;;;;;;;13.00;10.25;;;;;12.63;47.27;99703.06;5055664;28;45373;-68
2022/12/04 11:26:36;;;;;;;;;11.75;10.00;;;;;12.64;46.87;99704.81;5058198;28;45515;-73
2022/12/04 11:29:04;;;;;;;;;11.25;9.00;;;;;12.48;46.59;99680.25;5057637;28;45588;-67
2022/12/04 11:31:31;;;;;;;;;11.00;9.75;;;;;12.59;46.84;99710.00;5057372;28;45979;-75
2022/12/04 11:34:01;;;;;;;;;9.33;8.00;;;;;12.67;46.91;99708.34;5056621;28;45529;-68
2022/12/04 11:36:31;;;;;;;;;14.00;12.25;;;;;12.77;46.66;99701.41;5055274;28;45408;-69
2022/12/04 11:39:14;;;;;;;;;14.00;13.25;;;;;12.74;47.07;99704.03;5057150;28;46076;-67
2022/12/04 11:41:40;;;;;;;;;12.50;9.50;;;;;12.59;46.31;99683.81;5054714;28;45797;-68
2022/12/04 11:44:20;;;;;;;;;11.50;11.00;;;;;12.67;46.26;99691.72;5056748;28;45803;-76
2022/12/04 11:46:53;;;;;;;;;18.25;15.00;;;;;12.54;46.76;99696.00;5057359;28;45570;-67
2022/12/04 11:49:24;;;;;;;;;10.25;9.00;;;;;12.31;47.00;99677.47;5054682;28;45980;-66
2022/12/04 11:52:14;;;;;;;;;10.50;9.75;;;;;12.45;45.82;99691.56;5056816;28;45453;-74
2022/12/04 11:55:14;;;;;;;;;8.00;7.50;;;;;12.16;46.13;99685.19;5055126;28;45696;-69
2022/12/04 11:58:16;;;;;;;;;9.00;7.00;;;;;12.18;46.44;99686.09;5037630;28;45437;-67
2022/12/04 12:01:17;;;;;;;;;11.00;8.75;;;;;12.03;46.62;99687.66;5055377;28;46057;-67
2022/12/04 12:04:01;;;;;;;;;10.25;8.25;;;;;12.00;46.94;99692.88;5032125;28;45337;-74
2022/12/04 12:06:36;;;;;;;;;10.00;10.00;;;;;11.90;46.48;99672.72;5052760;28;45588;-74